Latest Weather Observations for Bourke

IDN60801

Issued at 10:33 am EDT Monday 22 December 2014 (issued every 30 minutes, with the page automatically refreshed every 10 minutes)

About weather observations | Map of weather stations | Latest weather observations for NSW | Other Formats
Station Details ID: 048245 Name: BOURKE AIRPORT AWS Lat: -30.04 Lon: 145.95 Height: 107.3 m
Data from the previous 72 hours. | See also: Recent months at Bourke
Date/Time
EDT
Temp
°C
App
Temp
°C
Dew
Point
Rel
Hum
%
Delta-T
°C
Wind Press
QNH
hPa
Press
MSL
hPa
Rain
since 9 am
mm
Dir
 
Spd
km/h
Gust
km/h
Spd
kts
Gust
kts
22/10:30am 35.0 30.9 12.6 26 13.5 N 26 35 14 19 1011.1 1010.4 0.0
22/10:00am 34.7 31.6 14.6 30 12.5 NNE 24 32 13 17 1011.2 1010.5 0.0
22/09:30am 32.0 28.2 13.7 33 11.1 NNE 26 39 14 21 1011.2 1010.5 0.0
22/09:00am 31.2 27.1 14.8 37 10.1 NNE 30 39 16 21 1011.2 1010.5 0.0
22/08:30am 29.8 26.0 14.7 39 9.2 NE 28 41 15 22 1011.2 1010.5 0.0
22/08:00am 28.4 25.5 15.0 44 8.2 NE 24 33 13 18 1010.9 1010.2 0.0
22/07:30am 27.2 24.1 14.6 46 7.6 NE 24 35 13 19 1010.5 1009.8 0.0
22/07:00am 26.0 23.8 14.5 49 6.9 ENE 19 26 10 14 1010.1 1009.4 0.0
22/06:30am 24.8 23.6 14.0 51 6.4 ENE 13 19 7 10 1009.6 1008.9 0.0
22/06:00am 24.7 22.9 13.3 49 6.7 ENE 15 19 8 10 1009.2 1008.6 0.0
22/05:30am 25.5 23.3 13.4 47 7.1 ENE 17 20 9 11 1008.8 1008.2 0.0
22/05:00am 25.9 23.1 12.7 44 7.7 ENE 19 24 10 13 1008.6 1008.0 0.0
22/04:30am 26.1 23.4 11.8 41 8.2 ENE 17 24 9 13 1008.4 1007.8 0.0
22/04:00am 26.5 23.1 10.6 37 9.0 ENE 19 28 10 15 1008.4 1007.8 0.0
22/03:30am 26.9 23.6 9.7 34 9.6 ENE 17 24 9 13 1008.5 1007.9 0.0
22/03:00am 27.4 23.5 8.8 31 10.2 NE 19 26 10 14 1008.9 1008.3 0.0
22/02:30am 27.7 23.4 7.0 27 11.0 ENE 19 24 10 13 1009.0 1008.4 0.0
22/02:00am 27.4 22.8 3.8 22 11.9 E 17 22 9 12 1009.2 1008.6 0.0
22/01:30am 24.6 20.6 0.8 21 11.1 ESE 11 15 6 8 1009.1 1008.5 0.0
22/01:00am 23.8 21.1 5.7 31 9.2 E 9 13 5 7 1009.3 1008.7 0.0
22/12:30am 23.5 20.6 4.5 29 9.4 E 9 11 5 6 1009.4 1008.8 0.0
22/12:00am 24.7 21.6 1.6 22 11.0 SE 7 9 4 5 1009.8 1009.1 0.0
 
Date/Time
EDT
Temp
°C
App
Temp
°C
Dew
Point
Rel
Hum
%
Delta-T
°C
Wind Press
QNH
hPa
Press
MSL
hPa
Rain
since 9 am
mm
Dir
 
Spd
km/h
Gust
km/h
Spd
kts
Gust
kts
21/11:30pm 24.2 21.6 1.2 22 10.8 NE 4 9 2 5 1010.0 1009.3 0.0
21/11:00pm 25.3 22.5 -0.7 18 11.9 SSE 4 6 2 3 1009.9 1009.2 0.0
21/10:30pm 26.6 23.5 0.4 18 12.4 ESE 6 7 3 4 1009.7 1009.0 0.0
21/10:00pm 27.5 24.2 -1.4 15 13.3 SE 6 7 3 4 1009.7 1009.0 0.0
21/09:30pm 28.6 25.3 -1.5 14 13.9 SE 6 7 3 4 1009.4 1008.8 0.0
21/09:00pm 30.8 27.4 -0.8 13 15.1 ESE 7 9 4 5 1009.3 1008.7 0.0
21/08:30pm 33.2 29.3 -1.2 11 16.6 SSE 9 9 5 5 1009.0 1008.4 0.0
21/08:00pm 35.9 32.1 -0.5 10 18.0 SSE 9 11 5 6 1008.7 1008.1 0.0
21/07:30pm 36.9 33.1 -1.1 9 18.7 SSE 9 13 5 7 1008.6 1008.0 0.0
21/07:00pm 37.2 32.6 -0.9 9 18.9 S 13 17 7 9 1008.4 1007.8 0.0
21/06:30pm 37.9 34.7 -0.4 9 19.2 WSW 6 15 3 8 1008.3 1007.7 0.0
21/06:00pm 38.2 34.1 -0.2 9 19.4 SW 11 20 6 11 1008.2 1007.6 0.0
21/05:30pm 38.6 34.2 0.1 9 19.6 WSW 13 22 7 12 1008.3 1007.7 0.0
21/05:00pm 38.3 34.6 -0.1 9 19.4 W 9 15 5 8 1008.7 1008.1 0.0
21/04:30pm 38.1 34.7 -0.3 9 19.3 SSW 7 15 4 8 1009.2 1008.6 0.0
21/04:00pm 38.1 34.0 -0.3 9 19.4 SW 11 26 6 14 1009.7 1009.0 0.0
21/03:30pm 38.4 33.9 0.0 9 19.5 W 13 24 7 13 1010.0 1009.3 0.0
21/03:00pm 37.4 32.8 -0.8 9 19.0 ENE 13 24 7 13 1010.3 1009.6 0.0
21/02:30pm 37.4 33.4 0.7 10 18.7 SW 11 19 6 10 1010.8 1010.1 0.0
21/02:00pm 36.8 32.8 0.2 10 18.4 W 11 17 6 9 1011.3 1010.6 0.0
21/01:30pm 36.7 32.6 0.1 10 18.4 SSW 11 22 6 12 1011.7 1011.0 0.0
21/01:00pm 37.4 33.4 0.7 10 18.7 NNE 11 17 6 9 1012.3 1011.6 0.0
21/12:30pm 35.3 31.3 0.4 11 17.5 NNW 11 20 6 11 1012.6 1011.9 0.0
21/12:00pm 35.2 31.2 0.3 11 17.4 ENE 11 26 6 14 1013.0 1012.3 0.0
21/11:30am 34.5 29.8 1.0 12 16.8 NE 15 22 8 12 1013.3 1012.6 0.0
21/11:00am 34.4 30.1 3.1 14 16.3 ENE 15 22 8 12 1013.4 1012.7 0.0
21/10:30am 33.0 28.1 3.9 16 15.2 E 19 26 10 14 1013.5 1012.8 0.0
21/10:00am 32.0 27.2 4.7 18 14.4 E 19 24 10 13 1013.7 1013.1 0.0
21/09:30am 30.5 25.8 5.0 20 13.4 ENE 19 24 10 13 1013.7 1013.1 0.0
21/09:00am 29.0 24.8 5.8 23 12.2 E 17 22 9 12 1013.6 1013.0 0.0
21/08:30am 27.2 22.6 5.5 25 11.3 ENE 19 24 10 13 1013.6 1013.0 0.0
21/08:00am 25.6 21.6 4.7 26 10.6 ESE 15 22 8 12 1013.4 1012.7 0.0
21/07:30am 23.4 19.9 3.4 27 9.7 ESE 11 17 6 9 1013.0 1012.3 0.0
21/07:00am 21.6 18.5 3.8 31 8.6 ESE 9 9 5 5 1012.8 1012.1 0.0
21/06:30am 19.1 15.9 2.9 34 7.6 ESE 9 11 5 6 1012.5 1011.8 0.0
21/06:00am 17.5 14.5 1.1 33 7.3 E 6 9 3 5 1012.0 1011.3 0.0
21/05:30am 18.2 15.0 0.8 31 7.7 E 7 9 4 5 1011.7 1011.0 0.0
21/05:00am 20.4 16.2 1.8 29 8.6 SE 13 13 7 7 1011.2 1010.5 0.0
21/04:30am 20.3 16.9 1.7 29 8.6 ESE 9 11 5 6 1011.1 1010.4 0.0
21/04:00am 20.1 16.6 1.5 29 8.5 ESE 9 11 5 6 1011.1 1010.4 0.0
21/03:30am 19.6 16.2 1.6 30 8.2 ESE 9 11 5 6 1011.1 1010.4 0.0
21/03:00am 18.6 15.4 -0.2 28 8.2 ESE 6 7 3 4 1011.3 1010.6 0.0
21/02:30am 19.1 15.7 -0.3 27 8.5 E 7 9 4 5 1011.3 1010.6 0.0
21/02:00am 19.1 15.6 -1.4 25 8.8 ENE 7 9 4 5 1011.5 1010.8 0.0
21/01:30am 20.0 16.5 -1.7 23 9.3 ENE 7 9 4 5 1011.8 1011.1 0.0
21/01:00am 20.8 17.3 -1.1 23 9.6 E 7 7 4 4 1012.0 1011.3 0.0
21/12:30am 21.4 17.8 -1.8 21 10.1 E 7 7 4 4 1012.2 1011.5 0.0
21/12:00am 23.6 19.8 -0.6 20 10.9 E 9 11 5 6 1012.4 1011.7 0.0
 
Date/Time
EDT
Temp
°C
App
Temp
°C
Dew
Point
Rel
Hum
%
Delta-T
°C
Wind Press
QNH
hPa
Press
MSL
hPa
Rain
since 9 am
mm
Dir
 
Spd
km/h
Gust
km/h
Spd
kts
Gust
kts
20/11:30pm 23.8 20.0 2.0 24 10.4 E 11 11 6 6 1012.6 1011.9 0.0
20/11:00pm 23.3 19.7 0.4 22 10.5 E 9 11 5 6 1012.6 1011.9 0.0
20/10:30pm 23.8 21.6 -1.9 18 11.4 CALM 0 0 0 0 1012.3 1011.6 0.0
20/10:00pm 24.4 22.0 -3.0 16 11.9 CALM 0 0 0 0 1012.1 1011.4 0.0
20/09:30pm 25.7 23.3 -2.8 15 12.6 CALM 0 0 0 0 1011.9 1011.2 0.0
20/09:00pm 27.1 24.6 -3.7 13 13.5 CALM 0 0 0 0 1011.8 1011.1 0.0
20/08:30pm 29.6 27.2 -2.8 12 14.8 CALM 0 0 0 0 1011.6 1010.9 0.0
20/08:00pm 32.6 30.2 -2.9 10 16.5 CALM 0 0 0 0 1011.4 1010.7 0.0
20/07:30pm 33.6 29.6 -2.2 10 17.0 SSW 9 13 5 7 1011.2 1010.5 0.0
20/07:00pm 34.2 30.7 -1.7 10 17.2 SSW 7 9 4 5 1011.0 1010.3 0.0
20/06:30pm 34.4 30.5 -1.6 10 17.3 SSE 9 17 5 9 1010.8 1010.1 0.0
20/06:00pm 34.4 30.1 -1.6 10 17.3 SE 11 19 6 10 1010.7 1010.0 0.0
20/05:30pm 33.8 28.7 -2.0 10 17.0 S 15 20 8 11 1010.7 1010.0 0.0
20/05:00pm 33.7 29.3 -2.1 10 17.0 SE 11 20 6 11 1010.8 1010.1 0.0
20/04:30pm 33.7 28.2 -2.1 10 17.0 SSE 17 26 9 14 1011.2 1010.5 0.0
20/04:00pm 33.5 29.5 -2.3 10 16.9 WSW 9 17 5 9 1011.7 1011.0 0.0
20/03:30pm 33.1 28.3 -2.6 10 16.8 ESE 13 24 7 13 1012.1 1011.4 0.0
20/03:00pm 32.3 27.8 -3.2 10 16.4 S 11 19 6 10 1012.7 1012.0 0.0
20/02:30pm 32.5 28.6 -1.7 11 16.2 SSE 9 20 5 11 1013.1 1012.4 0.0
20/02:00pm 31.9 26.8 -2.2 11 16.0 SW 15 24 8 13 1013.7 1013.1 0.0
20/01:30pm 31.5 26.7 -2.5 11 15.8 SE 13 24 7 13 1014.3 1013.7 0.0
20/01:00pm 31.3 27.4 -1.5 12 15.5 ENE 9 17 5 9 1014.7 1014.1 0.0
20/12:30pm 30.1 25.3 -2.4 12 15.0 SE 13 20 7 11 1015.0 1014.4 0.0
20/12:00pm 30.5 26.7 -1.0 13 14.9 E 9 13 5 7 1015.3 1014.7 0.0
20/11:30am 30.1 26.2 -1.3 13 14.7 S 9 17 5 9 1015.9 1015.3 0.0
20/11:00am 28.1 24.1 -1.9 14 13.7 ENE 9 19 5 10 1015.9 1015.3 0.0
20/10:30am 27.5 23.1 -2.3 14 13.5 SSE 11 19 6 10 1016.0 1015.4 0.0
20/10:00am 27.1 22.0 -1.7 15 13.1 ESE 15 20 8 11 1016.3 1015.7 0.0
20/09:30am 26.3 20.9 -1.5 16 12.6 SSE 17 24 9 13 1016.4 1015.8 0.0
20/09:00am 25.3 20.0 -0.7 18 11.9 SSE 17 20 9 11 1016.3 1015.7 0.0
20/08:30am 23.2 17.2 -1.7 19 11.0 SE 20 28 11 15 1016.1 1015.5 0.0
20/08:00am 21.8 16.1 -0.8 22 10.0 SSE 19 24 10 13 1015.6 1015.0 0.0
20/07:30am 19.8 14.7 -1.9 23 9.3 SSE 15 20 8 11 1015.2 1014.6 0.0
20/07:00am 18.6 14.3 -1.8 25 8.6 S 11 15 6 8 1015.0 1014.4 0.0
20/06:30am 17.2 12.9 -1.4 28 7.8 S 11 13 6 7 1014.8 1014.2 0.0
20/06:00am 16.8 12.9 -1.8 28 7.7 S 9 11 5 6 1014.6 1014.0 0.0
20/05:30am 17.3 13.0 -1.9 27 8.0 S 11 13 6 7 1014.5 1013.9 0.0
20/05:00am 17.7 13.4 -2.0 26 8.2 S 11 13 6 7 1014.3 1013.7 0.0
20/04:30am 17.9 13.9 -2.4 25 8.4 S 9 11 5 6 1014.2 1013.6 0.0
20/04:00am 18.8 14.4 -2.2 24 8.8 SSE 11 13 6 7 1014.0 1013.4 0.0
20/03:30am 19.3 14.9 -2.3 23 9.1 SSE 11 15 6 8 1013.9 1013.3 0.0
20/03:00am 20.3 15.5 -2.7 21 9.7 S 13 17 7 9 1014.0 1013.4 0.0
20/02:30am 21.3 16.1 -2.5 20 10.2 S 15 19 8 10 1014.2 1013.6 0.0
20/02:00am 21.8 16.2 -2.8 19 10.5 S 17 20 9 11 1014.3 1013.7 0.0
20/01:30am 21.9 16.6 -3.5 18 10.7 S 15 19 8 10 1014.3 1013.7 0.0
20/01:00am 21.8 17.0 -2.8 19 10.5 S 13 15 7 8 1014.6 1014.0 0.0
20/12:30am 20.9 16.0 -3.6 19 10.2 SSW 13 13 7 7 1014.6 1014.0 0.0
20/12:00am 19.8 15.5 -4.5 19 9.8 WSW 9 11 5 6 1014.7 1014.1 0.0
 
Date/Time
EDT
Temp
°C
App
Temp
°C
Dew
Point
Rel
Hum
%
Delta-T
°C
Wind Press
QNH
hPa
Press
MSL
hPa
Rain
since 9 am
mm
Dir
 
Spd
km/h
Gust
km/h
Spd
kts
Gust
kts
19/11:30pm 21.1 16.9 -4.1 18 10.4 WSW 9 11 5 6 1014.8 1014.2 0.0
19/11:00pm 22.2 18.0 -4.0 17 11.0 WSW 9 11 5 6 1014.7 1014.1 0.0
19/10:30pm 22.9 18.3 -4.2 16 11.4 SW 11 15 6 8 1014.4 1013.8 0.0
19/10:00pm 24.1 19.8 -5.0 14 12.2 WSW 9 11 5 6 1013.9 1013.3 0.0
19/09:30pm 25.4 21.1 -5.0 13 12.8 WSW 9 11 5 6 1013.5 1012.8 0.0
19/09:00pm 26.7 22.4 -5.0 12 13.6 SW 9 13 5 7 1013.2 1012.5 0.0
19/08:30pm 28.4 23.8 -3.7 12 14.3 SW 11 15 6 8 1012.9 1012.2 0.0
19/08:00pm 30.4 25.1 -3.3 11 15.3 SW 15 20 8 11 1012.4 1011.7 0.0
19/07:30pm 31.5 25.8 -3.8 10 16.0 SW 17 24 9 13 1012.1 1011.4 0.0
19/07:00pm 32.3 26.8 -1.9 11 16.2 SW 17 26 9 14 1011.7 1011.0 0.0
19/06:30pm 32.7 26.9 -1.6 11 16.3 SW 19 28 10 15 1011.4 1010.7 0.0
19/06:00pm 32.8 26.0 -1.5 11 16.4 SW 24 33 13 18 1011.3 1010.6 0.0
19/05:30pm 33.0 27.2 -0.2 12 16.2 SSW 20 32 11 17 1011.2 1010.5 0.0
19/05:00pm 32.9 26.5 0.9 13 15.9 SW 24 41 13 22 1011.5 1010.8 0.0
19/04:30pm 32.9 26.9 0.9 13 15.9 SSW 22 37 12 20 1011.8 1011.1 0.0
19/04:00pm 32.8 27.1 0.8 13 15.9 S 20 33 11 18 1012.2 1011.5 0.0
19/03:30pm 33.0 26.2 0.9 13 16.0 SSW 26 43 14 23 1012.6 1011.9 0.0
19/03:00pm 31.9 26.3 1.1 14 15.3 SW 20 30 11 16 1012.8 1012.1 0.0
19/02:30pm 32.3 26.8 0.4 13 15.7 WSW 19 30 10 16 1013.1 1012.4 0.0
19/02:00pm 31.5 25.5 0.8 14 15.1 WSW 22 33 12 18 1013.4 1012.7 0.0
19/01:30pm 31.7 26.1 1.0 14 15.2 SW 20 32 11 17 1013.8 1013.2 0.0
19/01:00pm 30.7 25.4 2.9 17 14.1 SSW 20 32 11 17 1014.0 1013.4 0.0
19/12:30pm 30.3 25.3 3.4 18 13.7 SSW 19 32 10 17 1014.3 1013.7 0.0
19/12:00pm 30.2 26.4 4.0 19 13.5 SSW 13 22 7 12 1014.5 1013.9 0.0
19/11:30am 29.2 25.1 4.6 21 12.7 SSW 15 26 8 14 1014.8 1014.2 0.0
19/11:00am 28.3 24.1 3.9 21 12.4 S 15 43 8 23 1014.8 1014.2 0.0

Other Formats:

Comma delimited format used in spreadsheet applications
http://www.bom.gov.au/fwo/IDN60801/IDN60801.94703.axf

JavaScript Object Notation format (JSON) in row-major order
http://www.bom.gov.au/fwo/IDN60801/IDN60801.94703.json